createdAt,value
2018-09-08T00:02:08.577Z,3.17
2018-09-08T00:04:36.299Z,3.67
2018-09-08T00:07:10.139Z,3.30
2018-09-08T00:09:37.890Z,3.00
2018-09-08T00:12:06.091Z,2.80
2018-09-08T00:14:33.367Z,2.77
2018-09-08T00:17:06.939Z,3.07
2018-09-08T00:19:40.456Z,3.03
2018-09-08T00:22:14.008Z,3.23
2018-09-08T00:24:47.283Z,3.17
2018-09-08T00:27:19.254Z,3.53
2018-09-08T00:29:48.280Z,3.43
2018-09-08T00:32:16.736Z,3.17
2018-09-08T00:34:44.538Z,3.20
2018-09-08T00:37:12.467Z,2.80
2018-09-08T00:39:42.035Z,3.53
2018-09-08T00:42:09.916Z,2.97
2018-09-08T00:44:37.585Z,3.07
2018-09-08T00:47:05.338Z,3.37
2018-09-08T00:49:33.282Z,3.00
2018-09-08T00:52:00.975Z,2.90
2018-09-08T00:54:28.776Z,2.80
2018-09-08T00:56:56.534Z,2.63
2018-09-08T00:59:24.304Z,2.33
2018-09-08T01:01:52.074Z,2.20
2018-09-08T01:04:19.855Z,2.63
2018-09-08T01:06:47.614Z,2.40
2018-09-08T01:09:15.338Z,2.53
2018-09-08T01:11:43.411Z,2.70
2018-09-08T01:14:11.168Z,2.30
2018-09-08T01:16:38.851Z,2.40
2018-09-08T01:19:06.652Z,2.27
2018-09-08T01:21:34.498Z,2.97
2018-09-08T01:24:02.479Z,2.50
2018-09-08T01:26:30.191Z,2.50
2018-09-08T01:28:57.914Z,3.80
2018-09-08T01:31:25.674Z,3.00
2018-09-08T01:33:53.361Z,3.00
2018-09-08T01:36:21.369Z,2.87
2018-09-08T01:38:49.066Z,2.70
2018-09-08T01:41:16.894Z,3.30
2018-09-08T01:43:44.600Z,3.00
2018-09-08T01:46:12.347Z,3.17
2018-09-08T01:48:40.083Z,3.13
2018-09-08T01:51:07.886Z,2.80
2018-09-08T01:53:35.617Z,3.17
2018-09-08T01:56:03.311Z,3.00
2018-09-08T01:58:31.080Z,3.03
2018-09-08T02:00:58.810Z,3.27
2018-09-08T02:03:30.180Z,2.60
2018-09-08T02:05:57.879Z,2.67
2018-09-08T02:08:25.603Z,2.93
2018-09-08T02:10:53.296Z,2.77
2018-09-08T02:13:20.979Z,2.50
2018-09-08T02:15:48.701Z,3.00
2018-09-08T02:18:16.439Z,2.83
2018-09-08T02:20:44.156Z,3.20
2018-09-08T02:23:11.866Z,3.20
2018-09-08T02:25:39.548Z,2.83
2018-09-08T02:28:07.430Z,3.07
2018-09-08T02:30:35.232Z,3.17
2018-09-08T02:33:03.232Z,3.60
2018-09-08T02:35:31.220Z,2.90
2018-09-08T02:37:58.927Z,3.30
2018-09-08T02:40:26.652Z,3.33
2018-09-08T02:42:54.407Z,2.73
2018-09-08T02:45:22.067Z,3.07
2018-09-08T02:47:49.908Z,2.93
2018-09-08T02:50:43.377Z,2.67
2018-09-08T02:53:10.950Z,2.50
2018-09-08T02:55:37.698Z,2.50
2018-09-08T02:58:04.027Z,2.60
2018-09-08T03:00:30.804Z,2.30
2018-09-08T03:02:57.194Z,2.83
2018-09-08T03:08:24.288Z,2.60
2018-09-08T03:10:50.691Z,2.90
2018-09-08T03:13:17.022Z,3.90
2018-09-08T03:15:43.479Z,3.30
2018-09-08T03:18:09.913Z,3.80
2018-09-08T03:20:36.329Z,3.90
2018-09-08T03:23:02.664Z,3.50
2018-09-08T03:25:29.012Z,3.03
2018-09-08T03:27:55.343Z,3.13
2018-09-08T03:32:54.859Z,3.10
2018-09-08T03:35:21.281Z,4.20
2018-09-08T03:37:47.626Z,3.00
2018-09-08T03:40:14.042Z,3.00
2018-09-08T03:42:40.375Z,3.23
2018-09-08T03:45:07.042Z,2.83
2018-09-08T03:47:33.506Z,3.30
2018-09-08T03:49:59.833Z,3.00
2018-09-08T03:52:26.279Z,2.83
2018-09-08T03:54:52.670Z,2.50
2018-09-08T03:57:19.007Z,2.30
2018-09-08T03:59:45.461Z,2.47
2018-09-08T04:02:11.918Z,2.47
2018-09-08T04:04:39.636Z,2.60
2018-09-08T04:07:07.452Z,2.27
2018-09-08T04:09:40.818Z,2.10
2018-09-08T04:12:08.867Z,2.30
2018-09-08T04:14:36.531Z,2.10
2018-09-08T04:17:04.220Z,2.47
2018-09-08T04:19:31.919Z,2.60
2018-09-08T04:21:59.762Z,2.30
2018-09-08T04:24:27.442Z,2.00
2018-09-08T04:26:55.147Z,2.23
2018-09-08T04:29:22.857Z,1.80
2018-09-08T04:31:50.616Z,1.80
2018-09-08T04:34:18.662Z,1.70
2018-09-08T04:36:46.431Z,1.67
2018-09-08T04:39:14.244Z,1.57
2018-09-08T04:41:41.983Z,1.73
2018-09-08T04:44:10.022Z,1.60
2018-09-08T04:46:37.798Z,2.07
2018-09-08T04:49:05.514Z,1.60
2018-09-08T04:51:33.272Z,2.40
2018-09-08T04:57:11.336Z,2.10
2018-09-08T04:59:39.046Z,2.50
2018-09-08T05:02:06.766Z,1.80
2018-09-08T05:04:35.479Z,2.40
2018-09-08T05:07:03.211Z,2.70
2018-09-08T05:09:31.068Z,2.50
2018-09-08T05:11:59.017Z,2.43
2018-09-08T05:14:26.756Z,2.17
2018-09-08T05:16:54.427Z,1.97
2018-09-08T05:19:22.107Z,2.00
2018-09-08T05:21:49.860Z,2.00
2018-09-08T05:24:21.381Z,2.10
2018-09-08T05:26:49.084Z,1.97
2018-09-08T05:29:16.771Z,2.40
2018-09-08T05:31:44.492Z,2.13
2018-09-08T05:34:12.187Z,2.10
2018-09-08T05:36:39.885Z,2.43
2018-09-08T05:39:07.856Z,1.90
2018-09-08T05:41:35.903Z,2.00
2018-09-08T05:44:03.779Z,1.80
2018-09-08T05:46:31.439Z,2.30
2018-09-08T05:48:59.440Z,1.77
2018-09-08T05:51:27.071Z,2.00
2018-09-08T05:53:55.058Z,1.90
2018-09-08T05:56:22.823Z,1.80
2018-09-08T05:58:50.514Z,1.90
2018-09-08T06:01:18.331Z,1.73
2018-09-08T06:03:46.203Z,1.63
2018-09-08T06:06:13.926Z,1.90
2018-09-08T06:08:41.752Z,2.07
2018-09-08T06:11:09.532Z,2.13
2018-09-08T06:13:37.355Z,2.60
2018-09-08T06:16:05.230Z,2.20
2018-09-08T06:18:32.926Z,2.03
2018-09-08T06:21:01.078Z,2.00
2018-09-08T06:23:28.730Z,2.00
2018-09-08T06:26:02.151Z,2.00
2018-09-08T06:28:29.861Z,2.30
2018-09-08T06:30:57.871Z,2.07
2018-09-08T06:33:25.703Z,2.70
2018-09-08T06:35:53.378Z,2.47
2018-09-08T06:38:21.089Z,1.93
2018-09-08T06:40:48.843Z,2.40
2018-09-08T06:43:16.826Z,2.13
2018-09-08T06:45:44.699Z,2.10
2018-09-08T06:48:12.492Z,2.10
2018-09-08T06:50:40.194Z,2.00
2018-09-08T06:53:07.996Z,2.47
2018-09-08T06:55:35.746Z,2.80
2018-09-08T06:58:03.460Z,2.50
2018-09-08T07:00:31.099Z,2.73
2018-09-08T07:02:58.923Z,2.50
2018-09-08T07:05:26.632Z,2.47
2018-09-08T07:07:54.347Z,2.50
2018-09-08T07:10:22.177Z,2.47
2018-09-08T07:12:49.992Z,2.20
2018-09-08T07:15:17.728Z,2.20
2018-09-08T07:17:45.390Z,2.13
2018-09-08T07:20:13.275Z,2.33
2018-09-08T07:22:41.068Z,2.20
2018-09-08T07:25:09.083Z,2.27
2018-09-08T07:27:36.738Z,2.37
2018-09-08T07:30:04.779Z,1.77
2018-09-08T07:32:32.553Z,2.03
2018-09-08T07:35:00.415Z,1.87
2018-09-08T07:37:28.336Z,2.00
2018-09-08T07:39:56.031Z,1.90
2018-09-08T07:42:23.739Z,1.70
2018-09-08T07:44:51.919Z,1.80
2018-09-08T07:47:19.581Z,1.93
2018-09-08T07:49:47.375Z,1.60
2018-09-08T07:52:15.119Z,1.57
2018-09-08T07:54:42.907Z,1.57
2018-09-08T07:57:10.627Z,1.87
2018-09-08T07:59:38.460Z,2.17
2018-09-08T08:02:06.300Z,2.07
2018-09-08T08:04:34.095Z,1.77
2018-09-08T08:07:01.755Z,1.73
2018-09-08T08:09:29.782Z,1.90
2018-09-08T08:11:57.543Z,1.67
2018-09-08T08:14:25.445Z,1.53
2018-09-08T08:16:53.494Z,1.40
2018-09-08T08:19:21.303Z,2.50
2018-09-08T08:21:49.369Z,1.80
2018-09-08T08:24:17.167Z,1.50
2018-09-08T08:26:45.063Z,1.93
2018-09-08T08:29:12.846Z,2.20
2018-09-08T08:31:40.566Z,2.30
2018-09-08T08:34:08.625Z,1.83
2018-09-08T08:36:36.511Z,1.60
2018-09-08T08:39:07.191Z,1.40
2018-09-08T08:41:34.938Z,1.30
2018-09-08T08:44:02.666Z,1.40
2018-09-08T08:46:30.450Z,1.20
2018-09-08T08:48:58.220Z,1.10
2018-09-08T08:52:43.010Z,1.40
2018-09-08T08:55:09.327Z,1.20
2018-09-08T08:57:37.115Z,1.20
2018-09-08T09:00:04.920Z,1.13
2018-09-08T09:02:32.748Z,1.40
2018-09-08T09:05:00.703Z,1.10
2018-09-08T09:07:28.404Z,1.10
2018-09-08T09:09:56.428Z,1.37
2018-09-08T09:12:24.507Z,1.20
2018-09-08T09:14:52.267Z,1.20
2018-09-08T09:17:20.086Z,1.20
2018-09-08T09:20:05.325Z,1.30
2018-09-08T09:22:50.514Z,1.20
2018-09-08T09:25:18.379Z,1.33
2018-09-08T09:27:47.306Z,1.00
2018-09-08T09:30:15.801Z,1.20
2018-09-08T09:32:43.542Z,1.20
2018-09-08T09:35:13.023Z,1.17
2018-09-08T09:37:41.223Z,1.10
2018-09-08T09:40:09.581Z,1.57
2018-09-08T09:42:37.387Z,1.00
2018-09-08T09:45:05.727Z,1.20
2018-09-08T09:47:37.406Z,1.07
2018-09-08T09:50:06.755Z,1.20
2018-09-08T09:52:34.490Z,1.10
2018-09-08T09:55:02.220Z,1.13
2018-09-08T09:57:30.026Z,0.73
2018-09-08T09:59:57.814Z,1.20
2018-09-08T10:02:43.355Z,1.20
2018-09-08T10:05:13.234Z,1.10
2018-09-08T10:07:40.950Z,1.07
2018-09-08T10:10:17.790Z,1.43
2018-09-08T10:12:45.602Z,1.00
2018-09-08T10:15:13.307Z,1.10
2018-09-08T10:17:42.103Z,2.87
2018-09-08T10:20:17.248Z,1.70
2018-09-08T10:22:44.987Z,1.70
2018-09-08T10:25:15.007Z,1.40
2018-09-08T10:27:43.464Z,1.30
2018-09-08T10:30:11.975Z,1.50
2018-09-08T10:32:40.568Z,1.17
2018-09-08T10:35:08.339Z,1.27
2018-09-08T10:37:36.227Z,1.10
2018-09-08T10:40:04.023Z,1.20
2018-09-08T10:42:32.037Z,1.47
2018-09-08T10:44:59.839Z,1.10
2018-09-08T10:47:27.507Z,1.20
2018-09-08T10:49:55.298Z,2.60
2018-09-08T10:52:32.878Z,1.07
2018-09-08T10:55:00.768Z,1.33
2018-09-08T10:57:28.492Z,1.10
2018-09-08T10:59:56.395Z,1.30
2018-09-08T11:02:24.450Z,1.37
2018-09-08T11:04:52.009Z,1.60
2018-09-08T11:07:19.699Z,1.30
2018-09-08T11:09:47.490Z,1.30
2018-09-08T11:12:18.477Z,1.40
2018-09-08T11:14:46.274Z,1.30
2018-09-08T11:17:14.123Z,1.80
2018-09-08T11:19:41.811Z,1.90
2018-09-08T11:22:09.576Z,1.27
2018-09-08T11:24:37.366Z,1.50
2018-09-08T11:27:05.361Z,1.60
2018-09-08T11:29:33.087Z,1.30
2018-09-08T11:32:00.731Z,1.40
2018-09-08T11:34:28.542Z,1.20
2018-09-08T11:36:56.251Z,1.20
2018-09-08T11:39:23.927Z,1.20
2018-09-08T11:41:51.687Z,1.40
2018-09-08T11:44:19.603Z,1.27
2018-09-08T11:46:47.426Z,1.23
2018-09-08T11:49:15.086Z,1.33
2018-09-08T11:51:42.748Z,1.37
2018-09-08T11:54:10.418Z,1.77
2018-09-08T11:56:38.170Z,1.07
2018-09-08T11:59:06.122Z,1.13
2018-09-08T12:01:33.831Z,1.23
2018-09-08T12:04:01.930Z,1.10
2018-09-08T12:06:29.794Z,0.80
2018-09-08T12:08:57.583Z,1.50
2018-09-08T12:11:25.330Z,1.07
2018-09-08T12:13:53.514Z,1.20
2018-09-08T12:16:21.203Z,1.30
2018-09-08T12:18:49.032Z,1.00
2018-09-08T12:21:19.154Z,1.00
2018-09-08T12:23:46.882Z,1.30
2018-09-08T12:26:14.954Z,1.40
2018-09-08T12:28:42.718Z,1.20
2018-09-08T12:31:10.415Z,1.10
2018-09-08T12:33:38.135Z,1.63
2018-09-08T12:36:06.022Z,1.10
2018-09-08T12:38:33.778Z,1.20
2018-09-08T12:41:01.628Z,1.00
2018-09-08T12:43:29.422Z,0.80
2018-09-08T12:46:03.639Z,1.07
2018-09-08T12:48:31.322Z,1.20
2018-09-08T12:50:59.022Z,1.30
2018-09-08T12:53:26.820Z,0.90
2018-09-08T12:55:54.431Z,1.13
2018-09-08T12:58:22.155Z,1.37
2018-09-08T13:00:49.878Z,1.20
2018-09-08T13:03:17.566Z,1.37
2018-09-08T13:05:45.324Z,1.23
2018-09-08T13:08:13.116Z,1.00
2018-09-08T13:10:40.854Z,1.27
2018-09-08T13:13:08.532Z,1.20
2018-09-08T13:15:36.335Z,0.97
2018-09-08T13:18:04.070Z,1.00
2018-09-08T13:20:31.782Z,1.03
2018-09-08T13:22:59.516Z,0.83
2018-09-08T13:25:27.313Z,1.00
2018-09-08T13:27:55.019Z,1.33
2018-09-08T13:30:22.863Z,1.30
2018-09-08T13:32:50.530Z,1.13
2018-09-08T13:35:18.563Z,1.93
2018-09-08T13:37:46.311Z,1.57
2018-09-08T13:40:14.938Z,1.53
2018-09-08T13:42:42.911Z,1.10
2018-09-08T13:45:10.595Z,1.50
2018-09-08T13:47:38.290Z,1.30
2018-09-08T13:50:06.152Z,1.20
2018-09-08T13:52:33.829Z,1.30
2018-09-08T13:55:01.946Z,1.63
2018-09-08T13:57:29.727Z,1.23
2018-09-08T13:59:57.666Z,1.00
2018-09-08T14:02:25.516Z,1.30
2018-09-08T14:04:53.316Z,1.27
2018-09-08T14:07:21.275Z,1.10
2018-09-08T14:09:49.035Z,1.27
2018-09-08T14:12:17.635Z,1.30
2018-09-08T14:14:45.411Z,1.10
2018-09-08T14:17:13.093Z,1.20
2018-09-08T14:19:40.946Z,1.30
2018-09-08T14:22:08.707Z,1.20
2018-09-08T14:24:36.507Z,1.10
2018-09-08T14:27:04.553Z,1.50
2018-09-08T14:29:32.304Z,1.40
2018-09-08T14:32:00.239Z,1.27
2018-09-08T14:34:27.934Z,1.67
2018-09-08T14:36:55.615Z,1.10
2018-09-08T14:39:23.521Z,1.20
2018-09-08T14:41:54.999Z,1.00
2018-09-08T14:44:22.682Z,1.33
2018-09-08T14:46:50.443Z,1.00
2018-09-08T14:49:18.111Z,1.30
2018-09-08T14:51:45.812Z,1.33
2018-09-08T14:54:13.747Z,1.20
2018-09-08T14:56:41.658Z,2.50
2018-09-08T14:59:09.372Z,1.60
2018-09-08T15:01:37.330Z,1.47
2018-09-08T15:04:05.112Z,1.50
2018-09-08T15:06:32.850Z,2.27
2018-09-08T15:09:00.771Z,1.80
2018-09-08T15:11:28.575Z,2.00
2018-09-08T15:13:56.275Z,1.07
2018-09-08T15:16:24.003Z,1.40
2018-09-08T15:18:51.762Z,1.10
2018-09-08T15:21:19.423Z,1.30
2018-09-08T15:23:47.175Z,0.97
2018-09-08T15:26:15.121Z,1.00
2018-09-08T15:28:42.995Z,1.23
2018-09-08T15:31:10.685Z,1.40
2018-09-08T15:33:38.462Z,1.00
2018-09-08T15:36:06.249Z,1.30
2018-09-08T15:38:33.931Z,1.00
2018-09-08T15:41:01.683Z,1.43
2018-09-08T15:43:33.015Z,1.00
2018-09-08T15:46:00.829Z,1.20
2018-09-08T15:48:28.503Z,1.50
2018-09-08T15:50:56.199Z,1.30
2018-09-08T15:53:23.989Z,1.10
2018-09-08T15:55:51.739Z,1.20
2018-09-08T15:58:19.692Z,1.20
2018-09-08T16:00:47.424Z,1.50
2018-09-08T16:03:15.630Z,1.20
2018-09-08T16:05:43.419Z,1.13
2018-09-08T16:08:11.183Z,1.10
2018-09-08T16:10:38.977Z,1.40
2018-09-08T16:13:07.606Z,1.10
2018-09-08T16:15:35.815Z,1.40
2018-09-08T16:18:03.550Z,1.23
2018-09-08T16:20:31.267Z,1.20
2018-09-08T16:22:59.006Z,1.10
2018-09-08T16:25:26.834Z,1.00
2018-09-08T16:27:54.555Z,1.10
2018-09-08T16:30:22.279Z,1.30
2018-09-08T16:32:50.317Z,1.50
2018-09-08T16:35:18.039Z,1.20
2018-09-08T16:37:45.814Z,1.27
2018-09-08T16:40:13.515Z,1.10
2018-09-08T16:42:41.326Z,1.73
2018-09-08T16:45:09.150Z,1.23
2018-09-08T16:47:36.913Z,1.40
2018-09-08T16:50:04.792Z,1.70
2018-09-08T16:52:32.468Z,1.80
2018-09-08T16:55:00.203Z,1.83
2018-09-08T16:57:28.176Z,1.40
2018-09-08T16:59:55.862Z,1.53
2018-09-08T17:02:23.835Z,1.50
2018-09-08T17:04:51.640Z,1.50
2018-09-08T17:07:19.283Z,1.30
2018-09-08T17:09:46.980Z,1.40
2018-09-08T17:12:14.691Z,1.30
2018-09-08T17:14:42.498Z,1.67
2018-09-08T17:17:10.179Z,1.93
2018-09-08T17:19:37.890Z,1.63
2018-09-08T17:22:05.611Z,2.00
2018-09-08T17:24:33.367Z,1.97
2018-09-08T17:27:01.104Z,1.53
2018-09-08T17:29:28.856Z,1.47
2018-09-08T17:31:56.604Z,1.33
2018-09-08T17:34:24.280Z,1.50
2018-09-08T17:36:52.015Z,1.70
2018-09-08T17:39:20.014Z,1.70
2018-09-08T17:41:47.719Z,1.57
2018-09-08T17:44:15.482Z,2.07
2018-09-08T17:46:43.507Z,1.50
2018-09-08T17:49:11.267Z,1.70
2018-09-08T17:51:38.999Z,1.80
2018-09-08T17:54:06.710Z,2.20
2018-09-08T17:56:34.411Z,2.17
2018-09-08T17:59:02.365Z,2.17
2018-09-08T18:01:30.012Z,2.00
2018-09-08T18:03:57.911Z,1.90
2018-09-08T18:06:26.004Z,1.73
2018-09-08T18:08:53.784Z,2.10
2018-09-08T18:11:21.469Z,2.13
2018-09-08T18:13:49.167Z,2.50
2018-09-08T18:16:17.778Z,3.10
2018-09-08T18:18:45.483Z,2.67
2018-09-08T18:21:13.135Z,2.70
2018-09-08T18:23:41.259Z,3.13
2018-09-08T18:26:15.329Z,3.50
2018-09-08T18:28:43.082Z,3.97
2018-09-08T18:31:10.871Z,3.50
2018-09-08T18:33:38.627Z,3.53
2018-09-08T18:36:06.774Z,3.53
2018-09-08T18:38:34.590Z,3.53
2018-09-08T18:41:02.302Z,3.43
2018-09-08T18:43:30.046Z,3.57
2018-09-08T18:45:58.927Z,3.33
2018-09-08T18:48:26.998Z,3.00
2018-09-08T18:50:54.792Z,2.77
2018-09-08T18:53:22.474Z,2.67
2018-09-08T18:55:50.411Z,2.40
2018-09-08T18:58:18.872Z,2.03
2018-09-08T19:00:46.539Z,2.73
2018-09-08T19:03:14.314Z,2.30
2018-09-08T19:05:42.307Z,2.27
2018-09-08T19:08:10.015Z,2.27
2018-09-08T19:10:37.862Z,2.30
2018-09-08T19:13:05.626Z,1.80
2018-09-08T19:15:33.520Z,2.40
2018-09-08T19:18:01.295Z,2.20
2018-09-08T19:20:34.863Z,2.10
2018-09-08T19:23:02.925Z,2.00
2018-09-08T19:25:30.627Z,2.10
2018-09-08T19:28:01.672Z,1.90
2018-09-08T19:30:31.386Z,1.30
2018-09-08T19:32:59.341Z,1.90
2018-09-08T19:35:32.859Z,1.63
2018-09-08T19:38:00.653Z,1.50
2018-09-08T19:40:41.215Z,1.60
2018-09-08T19:43:09.066Z,1.80
2018-09-08T19:45:36.836Z,1.70
2018-09-08T19:48:21.117Z,1.53
2018-09-08T19:50:48.863Z,1.63
2018-09-08T19:53:22.369Z,1.83
2018-09-08T19:55:50.286Z,1.60
2018-09-08T19:58:23.900Z,1.70
2018-09-08T20:00:51.600Z,1.43
2018-09-08T20:03:19.470Z,1.73
2018-09-08T20:05:47.210Z,1.60
2018-09-08T20:08:15.012Z,2.10
2018-09-08T20:10:42.838Z,1.60
2018-09-08T20:13:10.524Z,1.73
2018-09-08T20:15:38.248Z,1.77
2018-09-08T20:18:06.027Z,1.80
2018-09-08T20:20:33.715Z,1.93
2018-09-08T20:23:01.900Z,1.73
2018-09-08T20:25:29.923Z,1.97
2018-09-08T20:27:57.711Z,2.07
2018-09-08T20:30:25.466Z,2.00
2018-09-08T20:32:53.170Z,2.10
2018-09-08T20:35:20.997Z,2.20
2018-09-08T20:37:48.765Z,1.80
2018-09-08T20:40:16.578Z,1.67
2018-09-08T20:42:44.274Z,2.03
2018-09-08T20:45:11.975Z,2.07
2018-09-08T20:47:39.764Z,2.27
2018-09-08T20:50:07.712Z,2.00
2018-09-08T20:52:35.452Z,2.10
2018-09-08T20:55:03.351Z,2.10
2018-09-08T20:57:34.035Z,2.20
2018-09-08T21:00:02.198Z,2.30
2018-09-08T21:02:29.911Z,2.63
2018-09-08T21:04:57.619Z,1.90
2018-09-08T21:07:25.394Z,2.37
2018-09-08T21:09:53.146Z,2.50
2018-09-08T21:12:20.807Z,2.20
2018-09-08T21:14:48.535Z,2.60
2018-09-08T21:17:16.213Z,2.10
2018-09-08T21:19:43.930Z,2.60
2018-09-08T21:22:11.637Z,2.63
2018-09-08T21:24:39.487Z,2.87
2018-09-08T21:27:07.192Z,2.73
2018-09-08T21:29:34.965Z,2.60
2018-09-08T21:32:02.646Z,2.57
2018-09-08T21:34:30.452Z,2.40
2018-09-08T21:36:58.153Z,2.57
2018-09-08T21:39:25.880Z,2.60
2018-09-08T21:41:53.926Z,2.50
2018-09-08T21:44:21.655Z,2.70
2018-09-08T21:46:49.380Z,2.53
2018-09-08T21:49:17.095Z,2.40
2018-09-08T21:51:44.832Z,2.50
2018-09-08T21:54:12.495Z,2.40
2018-09-08T21:56:40.199Z,2.50
2018-09-08T21:59:07.899Z,3.20
2018-09-08T22:01:35.587Z,2.90
2018-09-08T22:04:03.583Z,2.40
2018-09-08T22:06:31.229Z,2.60
2018-09-08T22:08:58.979Z,3.17
2018-09-08T22:11:26.702Z,2.50
2018-09-08T22:13:54.572Z,2.90
2018-09-08T22:16:22.390Z,2.67
2018-09-08T22:18:50.111Z,2.73
2018-09-08T22:21:17.811Z,2.63
2018-09-08T22:23:45.500Z,3.10
2018-09-08T22:26:13.182Z,2.67
2018-09-08T22:28:40.912Z,2.63
2018-09-08T22:31:08.595Z,3.00
2018-09-08T22:33:36.691Z,3.00
2018-09-08T22:36:04.379Z,3.03
2018-09-08T22:38:32.178Z,2.80
2018-09-08T22:40:59.867Z,2.60
2018-09-08T22:43:27.540Z,2.90
2018-09-08T22:45:55.255Z,2.80
2018-09-08T22:48:23.227Z,3.00
2018-09-08T22:50:50.898Z,3.07
2018-09-08T22:53:18.594Z,2.43
2018-09-08T22:55:46.326Z,2.77
2018-09-08T22:58:14.071Z,2.50
2018-09-08T23:00:41.803Z,2.90
2018-09-08T23:03:09.523Z,3.00
2018-09-08T23:05:37.198Z,3.10
2018-09-08T23:08:04.988Z,3.13
2018-09-08T23:10:32.684Z,2.70
2018-09-08T23:13:00.347Z,2.90
2018-09-08T23:15:28.347Z,3.10
2018-09-08T23:17:56.102Z,2.93
2018-09-08T23:20:23.962Z,2.90
2018-09-08T23:22:58.507Z,3.03
2018-09-08T23:25:26.327Z,2.87
2018-09-08T23:27:54.051Z,3.03
2018-09-08T23:30:22.111Z,2.83
2018-09-08T23:32:49.806Z,2.83
2018-09-08T23:35:17.711Z,2.63
2018-09-08T23:37:45.402Z,3.30
2018-09-08T23:40:13.204Z,3.47
2018-09-08T23:42:40.933Z,3.27
2018-09-08T23:45:08.666Z,3.10
2018-09-08T23:47:36.795Z,3.43
2018-09-08T23:50:04.538Z,3.10
2018-09-08T23:52:32.243Z,3.10
2018-09-08T23:54:59.962Z,3.30
2018-09-08T23:57:27.986Z,2.90
2018-09-08T23:59:55.706Z,3.30
